createdAt,value
2018-07-16T00:00:15.369Z,61.30
2018-07-16T00:02:43.652Z,61.20
2018-07-16T00:05:12.008Z,61.20
2018-07-16T00:07:40.304Z,61.30
2018-07-16T00:10:08.682Z,61.10
2018-07-16T00:12:38.084Z,61.90
2018-07-16T00:15:06.364Z,61.30
2018-07-16T00:17:34.993Z,61.40
2018-07-16T00:20:03.632Z,61.70
2018-07-16T00:22:32.089Z,61.60
2018-07-16T00:25:00.371Z,61.50
2018-07-16T00:27:28.650Z,61.30
2018-07-16T00:29:56.903Z,61.20
2018-07-16T00:32:25.155Z,61.10
2018-07-16T00:34:53.482Z,61.10
2018-07-16T00:37:21.749Z,61.10
2018-07-16T00:39:50.050Z,61.00
2018-07-16T00:42:18.345Z,61.00
2018-07-16T00:44:46.623Z,61.00
2018-07-16T00:47:14.892Z,61.10
2018-07-16T00:49:43.165Z,61.30
2018-07-16T00:52:11.425Z,61.20
2018-07-16T00:54:39.687Z,61.20
2018-07-16T00:57:07.969Z,61.30
2018-07-16T00:59:36.235Z,61.20
2018-07-16T01:04:32.521Z,61.60
2018-07-16T01:07:00.787Z,61.40
2018-07-16T01:09:29.052Z,61.30
2018-07-16T01:11:57.333Z,61.10
2018-07-16T01:14:25.657Z,60.90
2018-07-16T01:16:53.928Z,60.80
2018-07-16T01:19:22.215Z,60.80
2018-07-16T01:21:50.488Z,60.60
2018-07-16T01:24:18.769Z,60.60
2018-07-16T01:26:47.067Z,60.70
2018-07-16T01:29:15.338Z,60.70
2018-07-16T01:31:43.596Z,60.90
2018-07-16T01:34:11.856Z,61.20
2018-07-16T01:36:40.140Z,60.70
2018-07-16T01:39:08.416Z,60.70
2018-07-16T01:41:36.700Z,60.80
2018-07-16T01:44:04.971Z,61.00
2018-07-16T01:46:33.245Z,61.00
2018-07-16T01:49:01.501Z,61.10
2018-07-16T01:51:29.786Z,60.90
2018-07-16T01:53:58.090Z,60.60
2018-07-16T01:56:26.378Z,60.50
2018-07-16T01:58:54.649Z,60.90
2018-07-16T02:01:23.011Z,59.80
2018-07-16T02:03:51.275Z,59.60
2018-07-16T02:06:19.547Z,60.50
2018-07-16T02:11:15.821Z,60.10
2018-07-16T02:13:44.080Z,60.20
2018-07-16T02:16:12.356Z,60.10
2018-07-16T02:18:40.632Z,60.10
2018-07-16T02:21:08.966Z,60.20
2018-07-16T02:23:37.236Z,60.30
2018-07-16T02:26:05.496Z,60.50
2018-07-16T02:31:01.844Z,60.40
2018-07-16T02:33:30.042Z,60.20
2018-07-16T02:35:58.301Z,59.90
2018-07-16T02:38:26.570Z,59.80
2018-07-16T02:40:54.927Z,59.90
2018-07-16T02:43:23.187Z,60.00
2018-07-16T02:45:51.471Z,59.90
2018-07-16T02:48:19.744Z,59.80
2018-07-16T02:50:48.003Z,59.90
2018-07-16T02:53:16.277Z,60.00
2018-07-16T02:55:44.541Z,60.20
2018-07-16T02:58:12.803Z,60.30
2018-07-16T03:00:41.180Z,60.00
2018-07-16T03:03:09.466Z,60.00
2018-07-16T03:05:37.793Z,60.20
2018-07-16T03:08:06.070Z,60.20
2018-07-16T03:10:34.356Z,60.20
2018-07-16T03:13:02.608Z,60.40
2018-07-16T03:15:30.867Z,60.30
2018-07-16T03:17:59.136Z,60.00
2018-07-16T03:20:27.428Z,59.80
2018-07-16T03:22:55.737Z,59.70
2018-07-16T03:25:24.014Z,59.80
2018-07-16T03:27:52.700Z,59.80
2018-07-16T03:30:20.966Z,59.80
2018-07-16T03:32:49.239Z,60.20
2018-07-16T03:35:17.523Z,59.80
2018-07-16T03:37:45.800Z,59.80
2018-07-16T03:40:14.095Z,59.70
2018-07-16T03:42:42.381Z,59.80
2018-07-16T03:45:10.641Z,60.00
2018-07-16T03:50:06.955Z,59.60
2018-07-16T03:52:35.223Z,59.50
2018-07-16T03:55:03.608Z,59.50
2018-07-16T03:57:31.896Z,59.50
2018-07-16T04:00:00.173Z,59.30
2018-07-16T04:02:28.457Z,59.30
2018-07-16T04:04:56.728Z,59.40
2018-07-16T04:07:24.996Z,59.40
2018-07-16T04:09:53.255Z,59.60
2018-07-16T04:12:21.609Z,59.60
2018-07-16T04:14:49.875Z,59.60
2018-07-16T04:17:18.150Z,59.70
2018-07-16T04:19:46.512Z,59.80
2018-07-16T04:22:14.759Z,59.80
2018-07-16T04:24:43.043Z,59.80
2018-07-16T04:27:11.330Z,60.00
2018-07-16T04:29:39.602Z,60.20
2018-07-16T04:32:07.856Z,60.30
2018-07-16T04:34:36.123Z,60.00
2018-07-16T04:37:04.375Z,59.50
2018-07-16T04:39:32.657Z,59.40
2018-07-16T04:42:01.212Z,59.40
2018-07-16T04:44:29.515Z,59.40
2018-07-16T04:46:57.781Z,59.60
2018-07-16T04:49:26.056Z,59.60
2018-07-16T04:51:54.309Z,59.70
2018-07-16T04:56:50.553Z,60.10
2018-07-16T04:59:18.834Z,60.10
2018-07-16T05:01:47.103Z,60.20
2018-07-16T05:04:15.388Z,60.30
2018-07-16T05:06:43.671Z,60.20
2018-07-16T05:09:11.944Z,60.60
2018-07-16T05:11:40.225Z,60.50
2018-07-16T05:14:08.484Z,60.30
2018-07-16T05:16:36.803Z,60.20
2018-07-16T05:19:05.192Z,60.30
2018-07-16T05:21:33.483Z,60.20
2018-07-16T05:24:01.900Z,60.30
2018-07-16T05:26:30.172Z,60.90
2018-07-16T05:28:58.440Z,60.40
2018-07-16T05:33:54.750Z,60.70
2018-07-16T05:38:51.076Z,60.90
2018-07-16T05:41:19.376Z,60.90
2018-07-16T05:43:47.635Z,60.90
2018-07-16T05:46:15.928Z,61.00
2018-07-16T05:48:44.196Z,61.10
2018-07-16T05:51:12.466Z,61.10
2018-07-16T05:53:40.736Z,61.50
2018-07-16T05:56:08.989Z,61.30
2018-07-16T05:58:37.244Z,61.00
2018-07-16T06:01:05.520Z,60.90
2018-07-16T06:03:33.783Z,60.60
2018-07-16T06:06:02.053Z,60.60
2018-07-16T06:08:30.468Z,60.80
2018-07-16T06:10:58.760Z,60.80
2018-07-16T06:13:27.053Z,60.80
2018-07-16T06:15:55.314Z,60.90
2018-07-16T06:18:23.578Z,61.00
2018-07-16T06:20:51.847Z,60.80
2018-07-16T06:25:48.142Z,61.00
2018-07-16T06:28:16.534Z,61.50
2018-07-16T06:30:44.828Z,61.10
2018-07-16T06:33:13.104Z,61.60
2018-07-16T06:35:41.959Z,61.60
2018-07-16T06:38:10.251Z,61.40
2018-07-16T06:40:38.652Z,61.20
2018-07-16T06:43:06.914Z,61.30
2018-07-16T06:45:35.335Z,61.40
2018-07-16T06:48:03.597Z,61.60
2018-07-16T06:50:31.888Z,61.50
2018-07-16T06:53:00.189Z,61.40
2018-07-16T06:57:56.458Z,60.90
2018-07-16T07:00:24.731Z,60.60
2018-07-16T07:02:53.009Z,60.60
2018-07-16T07:05:21.302Z,60.50
2018-07-16T07:07:49.561Z,60.70
2018-07-16T07:10:17.833Z,60.80
2018-07-16T07:12:46.113Z,61.10
2018-07-16T07:15:14.393Z,61.30
2018-07-16T07:17:42.652Z,61.20
2018-07-16T07:20:10.928Z,61.20
2018-07-16T07:22:39.211Z,61.40
2018-07-16T07:25:07.639Z,61.60
2018-07-16T07:27:35.921Z,61.70
2018-07-16T07:30:04.193Z,62.20
2018-07-16T07:32:32.476Z,61.60
2018-07-16T07:35:00.803Z,61.60
2018-07-16T07:37:29.037Z,61.50
2018-07-16T07:39:57.383Z,61.60
2018-07-16T07:42:25.653Z,61.70
2018-07-16T07:44:53.937Z,62.20
2018-07-16T07:47:22.192Z,62.00
2018-07-16T07:52:18.468Z,62.10
2018-07-16T07:54:46.864Z,62.30
2018-07-16T07:57:15.027Z,62.40
2018-07-16T07:59:43.295Z,62.80
2018-07-16T08:02:11.626Z,62.90
2018-07-16T08:04:39.885Z,62.70
2018-07-16T08:07:11.241Z,63.30
2018-07-16T08:09:40.372Z,62.80
2018-07-16T08:12:09.519Z,62.90
2018-07-16T08:14:37.806Z,63.10
2018-07-16T08:17:06.187Z,62.90
2018-07-16T08:19:34.471Z,63.00
2018-07-16T08:22:02.768Z,62.50
2018-07-16T08:24:31.342Z,62.60
2018-07-16T08:29:27.645Z,62.30
2018-07-16T08:31:55.969Z,62.20
2018-07-16T08:34:24.215Z,62.00
2018-07-16T08:36:52.485Z,62.30
2018-07-16T08:39:20.757Z,62.70
2018-07-16T08:41:49.033Z,63.10
2018-07-16T08:44:17.313Z,62.90
2018-07-16T08:46:45.605Z,62.90
2018-07-16T08:49:13.868Z,63.30
2018-07-16T08:51:42.183Z,63.50
2018-07-16T08:54:10.432Z,63.70
2018-07-16T08:56:38.716Z,64.00
2018-07-16T08:59:07.071Z,64.10
2018-07-16T09:01:35.294Z,63.20
2018-07-16T09:04:03.610Z,63.40
2018-07-16T09:06:31.886Z,63.40
2018-07-16T09:09:00.147Z,63.50
2018-07-16T09:11:28.448Z,63.40
2018-07-16T09:13:56.705Z,63.50
2018-07-16T09:16:25.012Z,63.40
2018-07-16T09:18:53.283Z,63.80
2018-07-16T09:21:21.567Z,64.50
2018-07-16T09:23:49.833Z,64.40
2018-07-16T09:26:18.071Z,64.20
2018-07-16T09:28:46.328Z,64.20
2018-07-16T09:31:14.697Z,64.20
2018-07-16T09:33:43.091Z,64.00
2018-07-16T09:36:11.355Z,63.50
2018-07-16T09:38:39.627Z,63.30
2018-07-16T09:41:07.901Z,63.30
2018-07-16T09:43:36.174Z,63.50
2018-07-16T09:48:32.441Z,63.20
2018-07-16T09:51:00.721Z,62.70
2018-07-16T09:53:29.003Z,62.60
2018-07-16T09:55:57.273Z,62.60
2018-07-16T09:58:25.629Z,63.20
2018-07-16T10:00:59.183Z,62.80
2018-07-16T10:03:27.499Z,62.20
2018-07-16T10:05:55.780Z,61.30
2018-07-16T10:08:24.052Z,60.50
2018-07-16T10:10:52.331Z,60.90
2018-07-16T10:13:20.729Z,62.40
2018-07-16T10:15:49.008Z,62.60
2018-07-16T10:18:17.289Z,62.30
2018-07-16T10:20:45.551Z,62.00
2018-07-16T10:23:13.811Z,61.60
2018-07-16T10:25:42.166Z,61.90
2018-07-16T10:28:10.386Z,62.00
2018-07-16T10:30:38.652Z,61.50
2018-07-16T10:33:06.908Z,61.40
2018-07-16T10:35:35.201Z,61.90
2018-07-16T10:38:03.572Z,61.90
2018-07-16T10:40:31.840Z,62.10
2018-07-16T10:43:00.110Z,61.80
2018-07-16T10:45:28.364Z,61.80
2018-07-16T10:47:56.629Z,61.90
2018-07-16T10:52:52.921Z,62.50
2018-07-16T10:55:21.205Z,62.40
2018-07-16T10:57:49.440Z,62.20
2018-07-16T11:00:17.699Z,61.00
2018-07-16T11:02:45.987Z,60.70
2018-07-16T11:05:14.277Z,60.80
2018-07-16T11:07:42.532Z,61.20
2018-07-16T11:10:10.782Z,60.30
2018-07-16T11:12:39.073Z,60.30
2018-07-16T11:17:35.316Z,60.20
2018-07-16T11:20:03.607Z,59.80
2018-07-16T11:22:31.870Z,59.60
2018-07-16T11:25:00.215Z,60.40
2018-07-16T11:27:28.496Z,60.30
2018-07-16T11:29:56.764Z,60.20
2018-07-16T11:32:25.128Z,59.90
2018-07-16T11:34:53.382Z,58.80
2018-07-16T11:39:49.642Z,60.60
2018-07-16T11:42:17.902Z,59.80
2018-07-16T11:44:46.151Z,59.10
2018-07-16T11:47:14.408Z,58.70
2018-07-16T11:49:42.678Z,58.40
2018-07-16T11:52:10.997Z,59.60
2018-07-16T11:54:39.260Z,59.00
2018-07-16T11:57:07.602Z,59.10
2018-07-16T11:59:35.860Z,59.40
2018-07-16T12:02:04.124Z,58.80
2018-07-16T12:04:32.408Z,58.80
2018-07-16T12:07:00.696Z,60.00
2018-07-16T12:09:28.945Z,60.60
2018-07-16T12:11:57.218Z,60.50
2018-07-16T12:14:25.498Z,60.50
2018-07-16T12:16:53.745Z,59.90
2018-07-16T12:19:22.010Z,59.90
2018-07-16T12:21:50.308Z,59.70
2018-07-16T12:24:18.589Z,59.80
2018-07-16T12:26:46.870Z,59.60
2018-07-16T12:29:15.121Z,59.10
2018-07-16T12:31:43.384Z,59.30
2018-07-16T12:34:11.634Z,58.80
2018-07-16T12:39:07.997Z,57.40
2018-07-16T12:41:36.347Z,57.00
2018-07-16T12:44:04.629Z,56.70
2018-07-16T12:46:33.020Z,57.60
2018-07-16T12:49:01.437Z,58.60
2018-07-16T12:51:29.764Z,58.60
2018-07-16T12:53:58.024Z,57.80
2018-07-16T12:56:26.279Z,58.40
2018-07-16T13:01:22.573Z,57.70
2018-07-16T13:03:50.841Z,58.30
2018-07-16T13:06:23.485Z,58.20
2018-07-16T13:08:52.868Z,58.00
2018-07-16T13:13:49.141Z,57.50
2018-07-16T13:16:17.455Z,58.50
2018-07-16T13:21:13.791Z,59.20
2018-07-16T13:23:42.080Z,58.80
2018-07-16T13:26:10.646Z,58.60
2018-07-16T13:28:38.964Z,57.00
2018-07-16T13:31:07.244Z,56.70
2018-07-16T13:36:03.558Z,58.10
2018-07-16T13:38:31.841Z,58.10
2018-07-16T13:41:00.102Z,58.20
2018-07-16T13:43:28.376Z,57.90
2018-07-16T13:45:56.664Z,58.60
2018-07-16T13:48:24.949Z,58.70
2018-07-16T13:50:53.232Z,58.80
2018-07-16T13:53:21.555Z,58.40
2018-07-16T13:55:49.840Z,58.30
2018-07-16T13:58:18.109Z,57.90
2018-07-16T14:00:46.373Z,58.60
2018-07-16T14:05:42.738Z,58.70
2018-07-16T14:08:11.007Z,58.50
2018-07-16T14:10:39.284Z,58.50
2018-07-16T14:13:07.671Z,58.80
2018-07-16T14:15:36.071Z,58.50
2018-07-16T14:20:38.961Z,59.00
2018-07-16T14:23:07.241Z,57.00
2018-07-16T14:25:35.495Z,56.10
2018-07-16T14:30:31.743Z,56.90
2018-07-16T14:33:00.025Z,57.60
2018-07-16T14:35:28.297Z,58.10
2018-07-16T14:37:56.571Z,56.80
2018-07-16T14:40:24.845Z,55.30
2018-07-16T14:42:53.183Z,54.00
2018-07-16T14:45:21.501Z,55.40
2018-07-16T14:47:49.767Z,53.10
2018-07-16T14:50:18.077Z,51.80
2018-07-16T14:52:46.299Z,51.40
2018-07-16T14:55:14.619Z,51.60
2018-07-16T14:57:42.909Z,52.50
2018-07-16T15:00:11.224Z,55.30
2018-07-16T15:02:39.508Z,56.10
2018-07-16T15:05:07.777Z,56.20
2018-07-16T15:07:36.386Z,56.40
2018-07-16T15:10:04.706Z,56.60
2018-07-16T15:12:32.962Z,56.90
2018-07-16T15:15:01.246Z,57.30
2018-07-16T15:17:29.523Z,57.20
2018-07-16T15:19:57.890Z,57.60
2018-07-16T15:22:26.112Z,57.80
2018-07-16T15:24:54.396Z,57.80
2018-07-16T15:27:22.680Z,58.10
2018-07-16T15:29:50.951Z,57.90
2018-07-16T15:32:19.224Z,56.50
2018-07-16T15:34:47.533Z,56.60
2018-07-16T15:37:15.805Z,56.70
2018-07-16T15:39:44.138Z,55.90
2018-07-16T15:42:12.479Z,55.50
2018-07-16T15:44:40.736Z,55.40
2018-07-16T15:47:09.008Z,55.60
2018-07-16T15:49:37.288Z,55.60
2018-07-16T15:52:05.568Z,55.80
2018-07-16T15:54:33.853Z,55.60
2018-07-16T15:57:02.120Z,55.20
2018-07-16T15:59:30.400Z,55.40
2018-07-16T16:01:58.739Z,55.40
2018-07-16T16:04:27.033Z,55.20
2018-07-16T16:06:55.452Z,55.40
2018-07-16T16:09:23.734Z,55.40
2018-07-16T16:11:52.015Z,56.20
2018-07-16T16:14:20.549Z,56.00
2018-07-16T16:16:48.846Z,55.50
2018-07-16T16:19:17.089Z,55.60
2018-07-16T16:21:45.414Z,55.40
2018-07-16T16:24:13.735Z,54.60
2018-07-16T16:26:42.017Z,53.40
2018-07-16T16:29:10.296Z,53.50
2018-07-16T16:31:38.639Z,53.10
2018-07-16T16:34:07.112Z,52.20
2018-07-16T16:36:35.416Z,51.70
2018-07-16T16:39:04.348Z,51.60
2018-07-16T16:41:32.623Z,52.20
2018-07-16T16:44:00.923Z,53.10
2018-07-16T16:46:29.192Z,53.40
2018-07-16T16:48:57.499Z,54.20
2018-07-16T16:51:25.753Z,54.70
2018-07-16T16:53:54.007Z,56.00
2018-07-16T16:56:22.289Z,55.50
2018-07-16T16:58:50.533Z,54.80
2018-07-16T17:03:47.201Z,54.40
2018-07-16T17:06:15.470Z,54.00
2018-07-16T17:08:43.769Z,53.70
2018-07-16T17:13:40.056Z,54.10
2018-07-16T17:16:08.338Z,54.10
2018-07-16T17:18:36.603Z,54.60
2018-07-16T17:21:04.889Z,55.40
2018-07-16T17:23:33.213Z,56.80
2018-07-16T17:26:01.453Z,55.60
2018-07-16T17:28:29.765Z,55.20
2018-07-16T17:30:58.039Z,56.00
2018-07-16T17:33:26.350Z,56.40
2018-07-16T17:35:55.051Z,56.80
2018-07-16T17:38:23.303Z,56.80
2018-07-16T17:43:20.307Z,56.90
2018-07-16T17:45:48.835Z,57.00
2018-07-16T17:48:17.136Z,57.10
2018-07-16T17:50:45.404Z,57.40
2018-07-16T17:53:13.759Z,57.80
2018-07-16T17:55:42.137Z,58.30
2018-07-16T17:58:10.400Z,57.70
2018-07-16T18:00:38.810Z,57.60
2018-07-16T18:03:07.196Z,57.20
2018-07-16T18:08:03.552Z,58.40
2018-07-16T18:10:31.930Z,57.80
2018-07-16T18:13:00.207Z,57.50
2018-07-16T18:15:28.592Z,57.90
2018-07-16T18:17:56.867Z,57.90
2018-07-16T18:20:25.136Z,58.30
2018-07-16T18:22:53.418Z,58.20
2018-07-16T18:25:21.692Z,58.30
2018-07-16T18:30:18.208Z,58.40
2018-07-16T18:32:46.510Z,58.40
2018-07-16T18:35:14.788Z,58.70
2018-07-16T18:37:43.186Z,59.10
2018-07-16T18:40:11.405Z,58.50
2018-07-16T18:42:39.675Z,58.60
2018-07-16T18:45:08.050Z,58.90
2018-07-16T18:47:36.352Z,59.00
2018-07-16T18:50:05.404Z,59.10
2018-07-16T18:52:33.724Z,58.30
2018-07-16T18:55:02.001Z,58.30
2018-07-16T18:57:30.334Z,58.60
2018-07-16T19:02:26.768Z,59.10
2018-07-16T19:04:55.532Z,59.30
2018-07-16T19:07:24.046Z,59.40
2018-07-16T19:09:52.642Z,58.80
2018-07-16T19:12:21.114Z,58.60
2018-07-16T19:14:49.402Z,58.70
2018-07-16T19:17:17.684Z,58.80
2018-07-16T19:19:45.988Z,59.00
2018-07-16T19:22:14.276Z,58.90
2018-07-16T19:24:42.554Z,58.80
2018-07-16T19:27:10.922Z,59.10
2018-07-16T19:29:39.208Z,59.30
2018-07-16T19:32:07.509Z,59.60
2018-07-16T19:34:35.780Z,59.90
2018-07-16T19:37:04.485Z,60.00
2018-07-16T19:44:28.921Z,60.10
2018-07-16T19:49:25.237Z,61.20
2018-07-16T19:51:53.507Z,60.10
2018-07-16T19:54:21.806Z,59.60
2018-07-16T19:56:50.150Z,59.50
2018-07-16T19:59:18.389Z,59.50
2018-07-16T20:01:46.704Z,59.50
2018-07-16T20:04:14.993Z,59.60
2018-07-16T20:06:43.279Z,59.60
2018-07-16T20:09:11.593Z,59.60
2018-07-16T20:11:39.895Z,59.90
2018-07-16T20:14:08.189Z,60.30
2018-07-16T20:16:38.879Z,60.10
2018-07-16T20:19:07.164Z,60.00
2018-07-16T20:21:35.451Z,60.00
2018-07-16T20:24:03.733Z,60.10
2018-07-16T20:26:32.022Z,60.30
2018-07-16T20:29:00.306Z,60.50
2018-07-16T20:31:28.660Z,60.60
2018-07-16T20:33:56.939Z,60.50
2018-07-16T20:36:25.289Z,60.00
2018-07-16T20:38:53.571Z,60.30
2018-07-16T20:41:21.902Z,60.00
2018-07-16T20:43:50.226Z,59.90
2018-07-16T20:46:18.559Z,59.50
2018-07-16T20:48:46.852Z,59.60
2018-07-16T20:51:15.127Z,59.80
2018-07-16T20:53:43.432Z,59.90
2018-07-16T20:56:11.739Z,60.00
2018-07-16T20:58:40.093Z,60.00
2018-07-16T21:01:08.364Z,59.90
2018-07-16T21:03:36.733Z,59.90
2018-07-16T21:06:05.351Z,60.00
2018-07-16T21:08:33.647Z,60.00
2018-07-16T21:11:01.963Z,60.20
2018-07-16T21:13:30.349Z,60.00
2018-07-16T21:15:58.626Z,59.90
2018-07-16T21:18:26.896Z,59.60
2018-07-16T21:20:55.192Z,59.40
2018-07-16T21:23:23.470Z,59.70
2018-07-16T21:25:51.753Z,60.50
2018-07-16T21:28:20.035Z,59.90
2018-07-16T21:30:48.317Z,59.70
2018-07-16T21:33:16.621Z,59.80
2018-07-16T21:38:12.923Z,59.90
2018-07-16T21:43:09.197Z,60.00
2018-07-16T21:45:37.577Z,59.90
2018-07-16T21:48:05.866Z,59.90
2018-07-16T21:50:34.139Z,59.70
2018-07-16T21:53:02.443Z,59.60
2018-07-16T21:55:30.725Z,59.60
2018-07-16T21:57:59.028Z,59.90
2018-07-16T22:00:29.324Z,59.90
2018-07-16T22:02:58.528Z,59.80
2018-07-16T22:05:27.646Z,60.00
2018-07-16T22:07:56.769Z,60.00
2018-07-16T22:10:25.941Z,60.00
2018-07-16T22:12:54.749Z,59.90
2018-07-16T22:15:27.303Z,59.70
2018-07-16T22:17:56.443Z,59.50
2018-07-16T22:22:53.825Z,59.40
2018-07-16T22:27:50.805Z,59.40
2018-07-16T22:32:47.135Z,59.60
2018-07-16T22:35:15.443Z,59.70
2018-07-16T22:37:43.719Z,59.90
2018-07-16T22:40:11.991Z,60.00
2018-07-16T22:42:40.267Z,59.80
2018-07-16T22:45:09.165Z,59.70
2018-07-16T22:47:37.425Z,59.90
2018-07-16T22:50:05.702Z,60.00
2018-07-16T22:52:34.003Z,60.10
2018-07-16T22:55:02.283Z,60.40
2018-07-16T22:57:30.560Z,60.50
2018-07-16T22:59:58.823Z,60.40
2018-07-16T23:02:27.183Z,60.10
2018-07-16T23:04:55.546Z,60.10
2018-07-16T23:09:51.945Z,60.10
2018-07-16T23:12:20.220Z,60.00
2018-07-16T23:14:48.483Z,59.90
2018-07-16T23:19:45.088Z,60.10
2018-07-16T23:24:41.378Z,60.40
2018-07-16T23:27:10.613Z,60.30
2018-07-16T23:29:38.879Z,60.30
2018-07-16T23:32:07.177Z,60.30
2018-07-16T23:34:35.483Z,60.40
2018-07-16T23:37:03.742Z,60.50
2018-07-16T23:39:32.017Z,60.80
2018-07-16T23:44:28.289Z,60.50
2018-07-16T23:46:56.569Z,60.10
2018-07-16T23:49:24.840Z,60.10
2018-07-16T23:51:53.133Z,60.00
2018-07-16T23:54:21.416Z,60.10
2018-07-16T23:56:49.696Z,60.10
2018-07-16T23:59:17.969Z,60.20
